Accueil
METAR-TAF:

METAR-TAF

Aéroports :

Franklin Municipal-John Beverly Rose Airport

Franklin, Virginie, États-Unis

latitude: 36-42N, longitude: 076-54W, altitude: 12 m

Observation

Le bulletin a été fait il y a 27 minutes, à 07:15 UTC
Vent 3 kt de sud-ouest
Température 22°C
Humidité 73%
Pression 1013 hPa
Visibilité: 16.1 km
Ciel clair

METAR: KFKN 030715Z AUTO 23003KT 10SM CLR 22/17 A2991 RMK AO2 T02190174

Heure: 03:42 (07:42 UTC)


TAF: absent

Observations et prévisions météorologiques de plus de 4000 aéroports (messages METAR et TAF).

Les stations disponibles sont représentées par des disques jaunes et rouges sur la carte.

Passer la souris dessus pour voir le nom de la station.

Cliquer dessus pour voir les observations et prévisions météorologiques.

Pour changer de carte: cliquez sur les boutons verts avec une croix noire pour zoomer, sur le bouton vert avec un tiret pour effectuer un zoom arrière, ou sur les flèches vertes pour les cartes adjacentes.


METAR-TAF: